createdAt,value
2023-03-11T00:00:33.827Z,13.27
2023-03-11T00:03:02.160Z,12.90
2023-03-11T00:05:33.580Z,13.37
2023-03-11T00:08:01.449Z,12.73
2023-03-11T00:10:36.188Z,12.53
2023-03-11T00:13:05.072Z,12.70
2023-03-11T00:15:32.884Z,11.67
2023-03-11T00:17:59.847Z,12.50
2023-03-11T00:20:32.980Z,12.27
2023-03-11T00:23:14.729Z,11.40
2023-03-11T00:26:22.146Z,11.93
2023-03-11T00:28:51.942Z,12.07
2023-03-11T00:34:49.866Z,11.30
2023-03-11T00:37:25.779Z,11.90
2023-03-11T00:39:52.692Z,11.77
2023-03-11T00:42:38.026Z,11.63
2023-03-11T00:45:05.421Z,11.23
2023-03-11T00:47:32.233Z,11.60
2023-03-11T00:49:59.204Z,11.57
2023-03-11T00:52:26.031Z,11.67
2023-03-11T00:54:52.879Z,12.07
2023-03-11T00:57:19.668Z,11.63
2023-03-11T00:59:46.658Z,11.63
2023-03-11T01:02:13.969Z,11.73
2023-03-11T01:04:40.849Z,11.27
2023-03-11T01:07:11.279Z,11.50
2023-03-11T01:09:38.351Z,11.40
2023-03-11T01:12:05.337Z,11.33
2023-03-11T01:14:32.277Z,11.43
2023-03-11T01:16:59.145Z,11.13
2023-03-11T01:19:25.976Z,10.90
2023-03-11T01:21:52.882Z,11.40
2023-03-11T01:24:19.786Z,11.07
2023-03-11T01:26:46.704Z,11.70
2023-03-11T01:29:13.491Z,11.23
2023-03-11T01:31:40.272Z,11.33
2023-03-11T01:34:07.139Z,11.47
2023-03-11T01:36:34.030Z,11.13
2023-03-11T01:39:00.863Z,11.57
2023-03-11T01:41:27.698Z,11.63
2023-03-11T01:43:55.298Z,11.23
2023-03-11T01:46:26.473Z,10.83
2023-03-11T01:49:01.947Z,11.73
2023-03-11T01:51:49.885Z,11.43
2023-03-11T01:54:29.064Z,11.20
2023-03-11T01:56:56.615Z,10.70
2023-03-11T01:59:29.068Z,11.53
2023-03-11T02:02:07.257Z,10.90
2023-03-11T02:04:35.828Z,11.60
2023-03-11T02:07:04.388Z,11.47
2023-03-11T02:09:31.213Z,12.37
2023-03-11T02:11:58.438Z,12.50
2023-03-11T02:14:26.398Z,12.27
2023-03-11T02:16:53.687Z,11.60
2023-03-11T02:19:35.713Z,12.90
2023-03-11T02:22:03.136Z,12.10
2023-03-11T02:25:02.959Z,12.53
2023-03-11T02:27:32.562Z,12.03
2023-03-11T02:30:00.749Z,12.67
2023-03-11T02:32:28.333Z,11.80
2023-03-11T02:34:55.185Z,12.03
2023-03-11T02:37:21.958Z,12.27
2023-03-11T02:39:52.200Z,12.37
2023-03-11T02:42:28.505Z,11.40
2023-03-11T02:45:00.245Z,11.47
2023-03-11T02:47:27.733Z,11.33
2023-03-11T02:49:56.042Z,11.13
2023-03-11T02:52:28.217Z,11.13
2023-03-11T02:54:55.580Z,11.73
2023-03-11T02:57:22.447Z,11.17
2023-03-11T02:59:49.268Z,11.50
2023-03-11T03:02:16.267Z,10.83
2023-03-11T03:04:43.061Z,10.63
2023-03-11T03:07:09.960Z,10.90
2023-03-11T03:09:38.102Z,10.47
2023-03-11T03:12:05.551Z,10.33
2023-03-11T03:14:32.511Z,10.03
2023-03-11T03:16:59.590Z,10.13
2023-03-11T03:19:26.487Z,10.30
2023-03-11T03:21:53.271Z,9.93
2023-03-11T03:24:20.070Z,10.30
2023-03-11T03:26:46.891Z,10.13
2023-03-11T03:29:13.660Z,9.50
2023-03-11T03:31:40.540Z,10.53
2023-03-11T03:34:07.426Z,9.90
2023-03-11T03:36:34.262Z,10.30
2023-03-11T03:39:01.639Z,9.70
2023-03-11T03:41:29.701Z,10.50
2023-03-11T03:43:56.753Z,10.07
2023-03-11T03:46:23.805Z,10.30
2023-03-11T03:48:51.056Z,10.53
2023-03-11T03:51:18.360Z,10.53
2023-03-11T03:53:46.582Z,10.73
2023-03-11T03:56:16.804Z,10.23
2023-03-11T03:58:43.541Z,10.13
2023-03-11T04:01:11.790Z,9.73
2023-03-11T04:03:39.540Z,10.43
2023-03-11T04:06:07.331Z,10.60
2023-03-11T04:08:34.140Z,10.33
2023-03-11T04:11:00.931Z,10.03
2023-03-11T04:13:28.081Z,10.10
2023-03-11T04:15:54.884Z,10.17
2023-03-11T04:18:22.908Z,10.10
2023-03-11T04:20:49.723Z,9.67
2023-03-11T04:23:16.774Z,10.23
2023-03-11T04:25:43.580Z,9.57
2023-03-11T04:28:10.433Z,9.40
2023-03-11T04:30:37.326Z,9.97
2023-03-11T04:33:04.152Z,9.50
2023-03-11T04:35:30.990Z,9.80
2023-03-11T04:37:57.881Z,9.60
2023-03-11T04:40:24.710Z,8.93
2023-03-11T04:42:52.924Z,9.50
2023-03-11T04:45:19.797Z,8.57
2023-03-11T04:47:51.871Z,9.70
2023-03-11T04:50:19.328Z,9.10
2023-03-11T04:52:46.547Z,9.17
2023-03-11T04:55:13.950Z,8.73
2023-03-11T04:57:42.012Z,8.90
2023-03-11T05:00:11.807Z,8.83
2023-03-11T05:02:39.930Z,8.77
2023-03-11T05:05:08.420Z,8.53
2023-03-11T05:07:36.195Z,8.43
2023-03-11T05:10:04.753Z,8.57
2023-03-11T05:12:31.568Z,8.30
2023-03-11T05:14:58.382Z,8.10
2023-03-11T05:17:28.804Z,8.00
2023-03-11T05:19:55.716Z,8.00
2023-03-11T05:22:22.612Z,7.60
2023-03-11T05:24:49.796Z,7.33
2023-03-11T05:27:18.149Z,7.67
2023-03-11T05:32:26.201Z,7.60
2023-03-11T05:34:53.030Z,7.53
2023-03-11T05:37:19.900Z,7.40
2023-03-11T05:39:46.819Z,7.47
2023-03-11T05:42:13.764Z,7.10
2023-03-11T05:44:41.486Z,7.63
2023-03-11T05:47:08.388Z,7.20
2023-03-11T05:49:35.308Z,6.83
2023-03-11T05:52:02.118Z,6.80
2023-03-11T05:54:29.068Z,6.20
2023-03-11T05:56:55.990Z,6.53
2023-03-11T05:59:23.372Z,6.80
2023-03-11T06:01:50.322Z,6.90
2023-03-11T06:04:17.280Z,7.30
2023-03-11T06:06:44.173Z,7.07
2023-03-11T06:09:15.010Z,7.57
2023-03-11T06:11:42.423Z,6.73
2023-03-11T06:14:14.056Z,6.83
2023-03-11T06:16:42.105Z,6.47
2023-03-11T06:19:09.360Z,6.50
2023-03-11T06:21:36.213Z,6.70
2023-03-11T06:24:03.101Z,6.50
2023-03-11T06:26:30.051Z,6.10
2023-03-11T06:28:56.918Z,5.70
2023-03-11T06:31:26.965Z,5.93
2023-03-11T06:33:59.018Z,6.00
2023-03-11T06:36:26.329Z,6.00
2023-03-11T06:38:54.472Z,5.37
2023-03-11T06:41:21.619Z,5.33
2023-03-11T06:43:49.562Z,5.30
2023-03-11T06:46:19.676Z,5.43
2023-03-11T06:48:46.905Z,5.63
2023-03-11T06:51:14.284Z,5.93
2023-03-11T06:53:41.292Z,5.80
2023-03-11T06:56:10.801Z,5.30
2023-03-11T06:58:39.412Z,5.57
2023-03-11T07:01:19.712Z,5.80
2023-03-11T07:03:47.917Z,5.57
2023-03-11T07:06:17.378Z,5.80
2023-03-11T07:08:45.798Z,5.70
2023-03-11T07:11:34.603Z,6.37
2023-03-11T07:14:01.385Z,6.60
2023-03-11T07:16:30.598Z,6.87
2023-03-11T07:19:00.942Z,6.50
2023-03-11T07:21:29.745Z,6.63
2023-03-11T07:23:58.992Z,6.10
2023-03-11T07:26:27.185Z,6.67
2023-03-11T07:28:55.154Z,7.00
2023-03-11T07:31:25.169Z,6.70
2023-03-11T07:33:53.053Z,6.80
2023-03-11T07:36:26.946Z,7.30
2023-03-11T07:38:59.622Z,7.27
2023-03-11T07:41:27.344Z,7.43
2023-03-11T07:43:56.079Z,7.77
2023-03-11T07:46:24.437Z,8.30
2023-03-11T07:48:52.190Z,8.17
2023-03-11T07:51:20.346Z,8.60
2023-03-11T07:53:47.852Z,9.40
2023-03-11T07:56:16.648Z,9.57
2023-03-11T07:58:45.724Z,9.73
2023-03-11T08:01:18.405Z,9.50
2023-03-11T08:03:46.994Z,9.37
2023-03-11T08:06:19.912Z,9.27
2023-03-11T08:08:47.400Z,8.90
2023-03-11T08:11:15.472Z,9.30
2023-03-11T08:16:45.329Z,8.73
2023-03-11T08:19:13.329Z,8.73
2023-03-11T08:21:40.190Z,9.47
2023-03-11T08:24:07.672Z,10.10
2023-03-11T08:26:34.554Z,10.07
2023-03-11T08:29:01.504Z,9.93
2023-03-11T08:31:30.908Z,9.77
2023-03-11T08:34:07.936Z,10.03
2023-03-11T08:36:34.928Z,9.20
2023-03-11T08:39:02.016Z,9.90
2023-03-11T08:41:29.178Z,9.33
2023-03-11T08:43:56.223Z,9.53
2023-03-11T08:46:32.914Z,9.50
2023-03-11T08:49:01.300Z,9.93
2023-03-11T08:51:30.285Z,10.00
2023-03-11T08:53:57.723Z,11.10
2023-03-11T08:56:27.456Z,11.10
2023-03-11T08:58:55.106Z,12.13
2023-03-11T09:01:23.648Z,12.53
2023-03-11T09:03:52.354Z,12.47
2023-03-11T09:06:19.796Z,11.87
2023-03-11T09:08:48.037Z,12.47
2023-03-11T09:11:16.390Z,11.13
2023-03-11T09:13:45.252Z,11.90
2023-03-11T09:16:14.253Z,11.03
2023-03-11T09:18:41.105Z,11.00
2023-03-11T09:21:08.251Z,10.80
2023-03-11T09:23:35.149Z,10.57
2023-03-11T09:26:03.950Z,9.43
2023-03-11T09:28:30.869Z,9.17
2023-03-11T09:31:07.948Z,8.87
2023-03-11T09:33:46.581Z,8.93
2023-03-11T09:36:15.626Z,8.93
2023-03-11T09:38:42.960Z,9.20
2023-03-11T09:49:06.477Z,11.00
2023-03-11T09:52:14.123Z,11.70
2023-03-11T09:54:45.431Z,13.47
2023-03-11T09:57:17.815Z,13.27
2023-03-11T09:59:46.942Z,15.10
2023-03-11T10:02:20.122Z,17.37
2023-03-11T10:05:20.432Z,14.23
2023-03-11T10:07:57.400Z,14.10
2023-03-11T10:10:26.020Z,15.67
2023-03-11T10:13:10.805Z,16.23
2023-03-11T10:15:54.042Z,17.33
2023-03-11T10:18:38.978Z,16.93
2023-03-11T10:21:14.724Z,17.87
2023-03-11T10:24:42.981Z,17.97
2023-03-11T10:27:17.002Z,18.57
2023-03-11T10:29:43.906Z,17.93
2023-03-11T10:32:19.403Z,15.20
2023-03-11T10:34:53.311Z,14.93
2023-03-11T10:37:46.548Z,14.40
2023-03-11T10:40:26.659Z,12.93
2023-03-11T10:42:56.402Z,11.20
2023-03-11T10:45:24.025Z,10.50
2023-03-11T10:47:51.142Z,8.90
2023-03-11T10:50:20.019Z,8.10
2023-03-11T10:53:06.793Z,7.03
2023-03-11T10:55:34.526Z,6.93
2023-03-11T10:58:06.907Z,7.17
2023-03-11T11:00:33.927Z,7.30
2023-03-11T11:03:02.114Z,7.50
2023-03-11T11:05:34.228Z,7.60
2023-03-11T11:08:21.347Z,7.80
2023-03-11T11:11:00.216Z,8.27
2023-03-11T11:13:31.229Z,8.70
2023-03-11T11:16:17.162Z,9.60
2023-03-11T11:18:52.642Z,9.07
2023-03-11T11:21:37.893Z,8.27
2023-03-11T11:24:25.091Z,7.83
2023-03-11T11:27:15.484Z,7.40
2023-03-11T11:29:43.053Z,7.20
2023-03-11T11:32:19.126Z,6.70
2023-03-11T11:35:18.555Z,7.10
2023-03-11T11:37:51.902Z,7.03
2023-03-11T11:40:26.359Z,6.67
2023-03-11T11:42:57.831Z,5.40
2023-03-11T11:45:36.748Z,4.50
2023-03-11T11:48:21.857Z,4.70
2023-03-11T11:51:00.171Z,4.80
2023-03-11T11:53:49.828Z,4.73
2023-03-11T11:56:16.643Z,4.53
2023-03-11T11:58:43.755Z,4.83
2023-03-11T12:01:16.083Z,4.90
2023-03-11T12:04:03.167Z,5.00
2023-03-11T12:06:54.694Z,5.33
2023-03-11T12:09:52.270Z,5.03
2023-03-11T12:12:46.786Z,5.50
2023-03-11T12:15:26.429Z,5.93
2023-03-11T12:17:59.398Z,5.57
2023-03-11T12:20:54.238Z,6.73
2023-03-11T12:23:36.158Z,7.10
2023-03-11T12:26:24.808Z,7.30
2023-03-11T12:28:58.728Z,7.50
2023-03-11T12:31:29.099Z,8.23
2023-03-11T12:34:03.274Z,8.20
2023-03-11T12:36:38.705Z,8.13
2023-03-11T12:39:09.276Z,8.13
2023-03-11T12:41:42.509Z,8.13
2023-03-11T12:44:22.542Z,8.73
2023-03-11T12:46:58.348Z,8.10
2023-03-11T12:49:31.953Z,7.83
2023-03-11T12:52:14.075Z,7.73
2023-03-11T12:54:44.794Z,7.70
2023-03-11T12:57:20.474Z,7.40
2023-03-11T13:00:23.135Z,6.70
2023-03-11T13:03:01.067Z,6.80
2023-03-11T13:05:57.632Z,6.50
2023-03-11T13:08:27.983Z,7.40
2023-03-11T13:10:56.540Z,6.90
2023-03-11T13:13:42.569Z,6.27
2023-03-11T13:16:15.460Z,7.20
2023-03-11T13:18:44.304Z,6.57
2023-03-11T13:21:32.250Z,6.20
2023-03-11T13:24:27.040Z,6.70
2023-03-11T13:26:59.830Z,6.43
2023-03-11T13:30:01.144Z,6.83
2023-03-11T13:32:54.049Z,6.80
2023-03-11T13:35:33.481Z,6.97
2023-03-11T13:38:12.140Z,6.27
2023-03-11T13:40:40.386Z,7.23
2023-03-11T13:43:18.703Z,7.00
2023-03-11T13:46:26.467Z,6.90
2023-03-11T13:49:03.033Z,7.57
2023-03-11T13:51:42.274Z,8.43
2023-03-11T13:54:22.560Z,7.87
2023-03-11T13:56:59.795Z,7.67
2023-03-11T13:59:31.879Z,8.00
2023-03-11T14:02:18.355Z,7.03
2023-03-11T14:04:50.927Z,7.20
2023-03-11T14:07:20.490Z,7.33
2023-03-11T14:09:47.334Z,7.73
2023-03-11T14:12:16.508Z,7.50
2023-03-11T14:14:56.413Z,7.80
2023-03-11T14:17:23.272Z,7.77
2023-03-11T14:20:17.701Z,7.33
2023-03-11T14:22:47.880Z,7.03
2023-03-11T14:25:24.557Z,6.83
2023-03-11T14:28:00.916Z,6.90
2023-03-11T14:30:35.966Z,6.90
2023-03-11T14:33:23.267Z,6.53
2023-03-11T14:35:59.968Z,6.30
2023-03-11T14:38:30.992Z,6.00
2023-03-11T14:41:05.297Z,7.03
2023-03-11T14:43:41.140Z,6.37
2023-03-11T14:46:08.876Z,7.03
2023-03-11T14:48:39.952Z,6.33
2023-03-11T14:51:23.916Z,6.70
2023-03-11T14:53:59.782Z,6.10
2023-03-11T14:56:27.594Z,5.93
2023-03-11T14:59:12.462Z,6.17
2023-03-11T15:01:41.782Z,6.03
2023-03-11T15:04:26.956Z,5.40
2023-03-11T15:06:55.304Z,4.93
2023-03-11T15:09:23.983Z,5.03
2023-03-11T15:12:00.828Z,4.60
2023-03-11T15:14:32.488Z,4.63
2023-03-11T15:17:38.563Z,4.67
2023-03-11T15:20:31.954Z,4.40
2023-03-11T15:23:02.529Z,4.53
2023-03-11T15:25:35.878Z,4.70
2023-03-11T15:28:27.429Z,4.30
2023-03-11T15:31:22.355Z,4.20
2023-03-11T15:33:51.712Z,4.07
2023-03-11T15:36:49.374Z,4.43
2023-03-11T15:39:20.170Z,3.93
2023-03-11T15:42:03.713Z,4.10
2023-03-11T15:44:36.224Z,3.63
2023-03-11T15:47:04.293Z,3.60
2023-03-11T15:49:31.726Z,3.50
2023-03-11T15:51:59.764Z,3.17
2023-03-11T15:54:27.192Z,3.30
2023-03-11T15:56:55.276Z,3.30
2023-03-11T15:59:23.591Z,3.50
2023-03-11T16:01:50.585Z,3.33
2023-03-11T16:04:19.582Z,3.53
2023-03-11T16:06:56.518Z,3.30
2023-03-11T16:09:31.617Z,4.10
2023-03-11T16:11:59.206Z,3.30
2023-03-11T16:14:26.164Z,3.30
2023-03-11T16:16:52.977Z,3.30
2023-03-11T16:19:20.026Z,3.40
2023-03-11T16:21:50.358Z,3.17
2023-03-11T16:24:22.296Z,3.10
2023-03-11T16:26:51.609Z,3.50
2023-03-11T16:29:20.078Z,3.10
2023-03-11T16:31:47.266Z,3.50
2023-03-11T16:34:14.105Z,3.40
2023-03-11T16:36:41.074Z,3.30
2023-03-11T16:39:07.885Z,3.13
2023-03-11T16:41:42.909Z,3.07
2023-03-11T16:44:10.093Z,3.13
2023-03-11T16:46:37.319Z,3.10
2023-03-11T16:49:17.008Z,3.27
2023-03-11T16:51:44.160Z,3.13
2023-03-11T16:54:11.043Z,3.60
2023-03-11T16:56:41.731Z,3.83
2023-03-11T16:59:08.875Z,3.63
2023-03-11T17:01:39.260Z,3.70
2023-03-11T17:04:07.716Z,3.47
2023-03-11T17:06:47.012Z,3.80
2023-03-11T17:09:13.821Z,3.93
2023-03-11T17:11:40.608Z,3.70
2023-03-11T17:14:16.384Z,4.10
2023-03-11T17:16:45.188Z,4.00
2023-03-11T17:19:12.192Z,3.73
2023-03-11T17:21:39.675Z,4.00
2023-03-11T17:24:07.405Z,4.17
2023-03-11T17:26:34.261Z,3.90
2023-03-11T17:29:01.497Z,3.83
2023-03-11T17:31:28.638Z,3.83
2023-03-11T17:33:59.195Z,4.00
2023-03-11T17:36:26.476Z,3.77
2023-03-11T17:38:54.470Z,4.27
2023-03-11T17:41:23.318Z,3.90
2023-03-11T17:43:51.625Z,4.20
2023-03-11T17:46:20.557Z,4.17
2023-03-11T17:48:49.293Z,4.00
2023-03-11T17:51:27.116Z,3.47
2023-03-11T17:53:55.910Z,3.90
2023-03-11T17:56:23.032Z,3.80
2023-03-11T17:58:50.643Z,3.80
2023-03-11T18:01:23.141Z,3.90
2023-03-11T18:03:50.366Z,3.70
2023-03-11T18:06:19.199Z,3.80
2023-03-11T18:08:46.394Z,3.70
2023-03-11T18:11:18.896Z,3.87
2023-03-11T18:13:46.434Z,3.63
2023-03-11T18:16:26.012Z,3.77
2023-03-11T18:18:52.981Z,3.70
2023-03-11T18:21:26.448Z,3.57
2023-03-11T18:23:55.330Z,3.20
2023-03-11T18:26:31.553Z,3.57
2023-03-11T18:29:02.208Z,3.40
2023-03-11T18:31:30.546Z,3.70
2023-03-11T18:34:03.167Z,3.17
2023-03-11T18:36:32.567Z,3.10
2023-03-11T18:39:00.755Z,2.70
2023-03-11T18:41:30.977Z,2.97
2023-03-11T18:44:08.278Z,3.17
2023-03-11T18:46:35.650Z,2.67
2023-03-11T18:49:04.108Z,3.07
2023-03-11T18:51:32.171Z,2.87
2023-03-11T18:54:00.111Z,2.80
2023-03-11T18:56:27.574Z,3.13
2023-03-11T18:58:56.019Z,3.07
2023-03-11T19:01:22.967Z,3.03
2023-03-11T19:03:55.409Z,2.87
2023-03-11T19:06:27.907Z,3.13
2023-03-11T19:08:55.573Z,3.00
2023-03-11T19:11:24.113Z,2.80
2023-03-11T19:13:51.878Z,2.67
2023-03-11T19:16:22.110Z,2.90
2023-03-11T19:18:50.285Z,2.70
2023-03-11T19:21:18.036Z,3.30
2023-03-11T19:23:45.872Z,2.90
2023-03-11T19:26:13.376Z,2.80
2023-03-11T19:28:40.249Z,2.87
2023-03-11T19:31:07.109Z,2.70
2023-03-11T19:33:34.570Z,2.77
2023-03-11T19:36:04.295Z,2.50
2023-03-11T19:38:31.486Z,2.53
2023-03-11T19:41:07.711Z,2.77
2023-03-11T19:43:35.767Z,2.70
2023-03-11T19:46:07.028Z,3.10
2023-03-11T19:48:39.950Z,2.50
2023-03-11T19:51:06.989Z,2.70
2023-03-11T19:53:35.642Z,2.60
2023-03-11T19:56:10.637Z,3.80
2023-03-11T19:58:37.596Z,2.70
2023-03-11T20:01:04.881Z,3.07
2023-03-11T20:03:33.223Z,2.97
2023-03-11T20:06:05.846Z,2.80
2023-03-11T20:08:36.707Z,2.80
2023-03-11T20:11:05.250Z,3.10
2023-03-11T20:16:19.361Z,2.70
2023-03-11T20:18:50.200Z,2.97
2023-03-11T20:21:17.646Z,3.13
2023-03-11T20:23:51.672Z,3.13
2023-03-11T20:26:21.784Z,3.83
2023-03-11T20:28:49.032Z,3.30
2023-03-11T20:31:21.882Z,3.33
2023-03-11T20:33:50.293Z,3.30
2023-03-11T20:36:21.233Z,3.50
2023-03-11T20:38:50.239Z,3.40
2023-03-11T20:41:18.538Z,3.67
2023-03-11T20:43:45.708Z,3.63
2023-03-11T20:46:13.162Z,3.70
2023-03-11T20:48:41.665Z,3.90
2023-03-11T20:51:20.632Z,3.97
2023-03-11T20:53:49.065Z,3.90
2023-03-11T20:56:18.667Z,3.77
2023-03-11T20:58:47.332Z,4.00
2023-03-11T21:01:20.407Z,3.97
2023-03-11T21:03:48.383Z,3.97
2023-03-11T21:06:21.806Z,4.53
2023-03-11T21:08:49.697Z,4.40
2023-03-11T21:11:17.563Z,3.87
2023-03-11T21:13:44.648Z,4.20
2023-03-11T21:16:12.574Z,4.50
2023-03-11T21:18:39.794Z,4.10
2023-03-11T21:21:08.542Z,4.50
2023-03-11T21:23:35.908Z,4.23
2023-03-11T21:26:04.197Z,4.43
2023-03-11T21:28:31.701Z,3.90
2023-03-11T21:31:12.957Z,4.00
2023-03-11T21:33:41.098Z,4.67
2023-03-11T21:36:10.491Z,4.10
2023-03-11T21:38:40.827Z,3.97
2023-03-11T21:41:24.991Z,4.87
2023-03-11T21:43:56.264Z,3.80
2023-03-11T21:46:27.461Z,4.50
2023-03-11T21:48:54.492Z,4.13
2023-03-11T21:51:21.875Z,4.20
2023-03-11T21:53:49.399Z,4.60
2023-03-11T21:56:16.683Z,4.20
2023-03-11T21:58:43.975Z,4.27
2023-03-11T22:01:14.937Z,4.80
2023-03-11T22:03:42.299Z,4.60
2023-03-11T22:06:11.520Z,5.40
2023-03-11T22:08:38.717Z,4.60
2023-03-11T22:11:13.827Z,4.30
2023-03-11T22:13:40.815Z,4.60
2023-03-11T22:16:11.928Z,5.20
2023-03-11T22:18:41.450Z,4.40
2023-03-11T22:21:21.396Z,4.40
2023-03-11T22:23:54.224Z,5.10
2023-03-11T22:26:21.195Z,4.47
2023-03-11T22:28:48.091Z,4.70
2023-03-11T22:31:17.498Z,5.00
2023-03-11T22:34:57.234Z,5.07
2023-03-11T22:37:24.201Z,4.47
2023-03-11T22:39:51.080Z,4.60
2023-03-11T22:42:17.978Z,4.80
2023-03-11T22:44:44.778Z,5.20
2023-03-11T22:47:11.928Z,5.13
2023-03-11T22:49:38.866Z,4.77
2023-03-11T22:52:05.815Z,5.03
2023-03-11T22:54:32.632Z,5.70
2023-03-11T22:57:11.840Z,4.63
2023-03-11T22:59:38.674Z,5.20
2023-03-11T23:02:05.615Z,4.67
2023-03-11T23:04:35.163Z,4.97
2023-03-11T23:07:02.060Z,4.37
2023-03-11T23:09:28.885Z,5.00
2023-03-11T23:12:11.218Z,5.23
2023-03-11T23:14:45.065Z,4.70
2023-03-11T23:17:22.491Z,5.40
2023-03-11T23:19:49.563Z,4.67
2023-03-11T23:22:16.361Z,4.73
2023-03-11T23:24:43.265Z,4.60
2023-03-11T23:27:10.117Z,5.30
2023-03-11T23:29:37.099Z,5.03
2023-03-11T23:32:03.999Z,5.40
2023-03-11T23:34:30.836Z,4.93
2023-03-11T23:36:57.760Z,5.00
2023-03-11T23:39:24.593Z,5.47
2023-03-11T23:41:51.420Z,5.50
2023-03-11T23:44:18.262Z,5.17
2023-03-11T23:46:45.116Z,5.70
2023-03-11T23:49:11.863Z,5.17
2023-03-11T23:51:38.691Z,5.60
2023-03-11T23:54:06.801Z,5.37
2023-03-11T23:56:33.642Z,5.80
2023-03-11T23:59:01.832Z,5.50
